PWSweather.com
Personal Weather Stations
Station Observations
ANTHEMNP
Anthem North Parkside, Anthem, AZ 85086

Anthem North ParksideAnthem, AZ 85086

Lat: 33.876464, Lon: -112.13861199999997

Elevation: 1930

Station Type: Davis Vantage Vue with Pro 2 console

http://www.azjerry.com/ANPW/wxindex.php

High Low Average
Temperature 55.7°F13.2°C 49.4°F9.7°C 53.5°F11.9°C
Dew Point 49.9°F9.9°C 31.9°F-0.1°C 43.3°F6.3°C
Winds 8.1 mph 13.0 kmh Calm Calm 1.0 mph E1.6 kmh E
Wind Gusts 11.5 mph18.5 kmh -- 2.0 mph3.2 kmh
Humidity 89% 42% 70%
Pressure 30.17 in1021.7 mb 30.04 in1017.3 mb -
Precipitation 0.08 in2.0 mm - -
Hour Temp Dew Point Humidity Winds Wind Gusts Pressure Precip Precip Rate Daily Precip Total
12:00 AM 53.2°F11.8°C 32.9°F0.5°C 46% Calm Calm -- 30.05 in1017.6 mb - 0.00 in0.0 mm 0.00 in0.0 mm
12:10 AM 53.9°F12.2°C 33.0°F0.6°C 45% Calm Calm -- 30.04 in1017.3 mb - 0.00 in0.0 mm 0.00 in0.0 mm
12:15 AM 54.2°F12.3°C 32.8°F0.4°C 44% Calm Calm -- 30.05 in1017.6 mb - 0.00 in0.0 mm 0.00 in0.0 mm
12:20 AM 54.6°F12.6°C 33.1°F0.6°C 44% Calm Calm 1.2 mph1.9 kmh 30.05 in1017.6 mb - 0.00 in0.0 mm 0.00 in0.0 mm
12:25 AM 54.8°F12.7°C 33.3°F0.7°C 44% Calm Calm -- 30.05 in1017.6 mb - 0.00 in0.0 mm 0.00 in0.0 mm
12:30 AM 55.0°F12.8°C 33.5°F0.8°C 44% Calm Calm -- 30.05 in1017.6 mb - 0.00 in0.0 mm 0.00 in0.0 mm
12:40 AM 54.7°F12.6°C 34.9°F1.6°C 47% Calm Calm -- 30.05 in1017.6 mb - 0.00 in0.0 mm 0.00 in0.0 mm
12:45 AM 54.4°F12.4°C 35.1°F1.7°C 48% Calm Calm -- 30.05 in1017.6 mb - 0.00 in0.0 mm 0.00 in0.0 mm
12:50 AM 54.1°F12.3°C 34.9°F1.6°C 48% Calm Calm -- 30.05 in1017.6 mb - 0.00 in0.0 mm 0.00 in0.0 mm
12:55 AM 53.9°F12.2°C 35.7°F2.1°C 50% Calm Calm -- 30.05 in1017.6 mb - 0.00 in0.0 mm 0.00 in0.0 mm
01:00 AM 53.6°F12.0°C 35.4°F1.9°C 50% Calm Calm -- 30.05 in1017.6 mb - 0.00 in0.0 mm 0.00 in0.0 mm
01:20 AM 52.3°F11.3°C 35.7°F2.1°C 53% Calm Calm -- 30.05 in1017.6 mb - 0.00 in0.0 mm 0.00 in0.0 mm
01:30 AM 52.2°F11.2°C 35.1°F1.7°C 52% Calm Calm -- 30.05 in1017.6 mb - 0.00 in0.0 mm 0.00 in0.0 mm
01:35 AM 52.3°F11.3°C 35.7°F2.1°C 53% Calm Calm -- 30.06 in1017.9 mb - 0.00 in0.0 mm 0.00 in0.0 mm
01:50 AM 52.3°F11.3°C 36.6°F2.6°C 55% Calm Calm -- 30.07 in1018.3 mb - 0.00 in0.0 mm 0.00 in0.0 mm
01:55 AM 52.2°F11.2°C 36.5°F2.5°C 55% Calm Calm -- 30.07 in1018.3 mb - 0.00 in0.0 mm 0.00 in0.0 mm
02:00 AM 52.3°F11.3°C 36.6°F2.6°C 55% Calm Calm -- 30.07 in1018.3 mb - 0.00 in0.0 mm 0.00 in0.0 mm
02:15 AM 52.4°F11.3°C 35.3°F1.8°C 52% Calm Calm -- 30.07 in1018.3 mb - 0.00 in0.0 mm 0.00 in0.0 mm
02:20 AM 52.6°F11.4°C 35.0°F1.7°C 51% Calm Calm -- 30.07 in1018.3 mb - 0.00 in0.0 mm 0.00 in0.0 mm
02:25 AM 52.9°F11.6°C 34.8°F1.6°C 50% Calm Calm -- 30.07 in1018.3 mb - 0.00 in0.0 mm 0.00 in0.0 mm
02:30 AM 53.1°F11.7°C 34.5°F1.4°C 49% Calm Calm -- 30.08 in1018.6 mb - 0.00 in0.0 mm 0.00 in0.0 mm
02:40 AM 53.3°F11.8°C 35.1°F1.7°C 50% Calm Calm -- 30.08 in1018.6 mb - 0.00 in0.0 mm 0.00 in0.0 mm
02:45 AM 53.2°F11.8°C 35.0°F1.7°C 50% Calm Calm -- 30.08 in1018.6 mb - 0.00 in0.0 mm 0.00 in0.0 mm
02:50 AM 53.2°F11.8°C 37.0°F2.8°C 54% Calm Calm -- 30.08 in1018.6 mb - 0.00 in0.0 mm 0.00 in0.0 mm
03:00 AM 52.8°F11.6°C 37.1°F2.8°C 55% Calm Calm -- 30.08 in1018.6 mb - 0.00 in0.0 mm 0.00 in0.0 mm
03:20 AM 52.8°F11.6°C 35.7°F2.1°C 52% Calm Calm -- 30.08 in1018.6 mb - 0.00 in0.0 mm 0.00 in0.0 mm
03:30 AM 53.3°F11.8°C 35.1°F1.7°C 50% Calm Calm -- 30.08 in1018.6 mb - 0.00 in0.0 mm 0.00 in0.0 mm
03:35 AM 53.4°F11.9°C 34.2°F1.2°C 48% Calm Calm -- 30.08 in1018.6 mb - 0.00 in0.0 mm 0.00 in0.0 mm
03:40 AM 53.6°F12.0°C 33.8°F1.0°C 47% Calm Calm -- 30.08 in1018.6 mb - 0.00 in0.0 mm 0.00 in0.0 mm
03:45 AM 53.6°F12.0°C 33.8°F1.0°C 47% Calm Calm -- 30.08 in1018.6 mb - 0.00 in0.0 mm 0.00 in0.0 mm
03:50 AM 53.6°F12.0°C 33.8°F1.0°C 47% Calm Calm 1.2 mph1.9 kmh 30.08 in1018.6 mb - 0.00 in0.0 mm 0.00 in0.0 mm
03:55 AM 53.7°F12.1°C 33.9°F1.1°C 47% Calm Calm -- 30.08 in1018.6 mb - 0.00 in0.0 mm 0.00 in0.0 mm
04:00 AM 53.8°F12.1°C 33.5°F0.8°C 46% Calm Calm -- 30.08 in1018.6 mb - 0.00 in0.0 mm 0.00 in0.0 mm
04:10 AM 53.8°F12.1°C 33.5°F0.8°C 46% Calm Calm -- 30.09 in1019.0 mb - 0.00 in0.0 mm 0.00 in0.0 mm
04:20 AM 53.9°F12.2°C 33.6°F0.9°C 46% Calm Calm -- 30.09 in1019.0 mb - 0.00 in0.0 mm 0.00 in0.0 mm
04:25 AM 53.9°F12.2°C 33.6°F0.9°C 46% Calm Calm -- 30.09 in1019.0 mb - 0.00 in0.0 mm 0.00 in0.0 mm
04:30 AM 53.9°F12.2°C 33.6°F0.9°C 46% Calm Calm -- 30.09 in1019.0 mb - 0.00 in0.0 mm 0.00 in0.0 mm
04:35 AM 53.9°F12.2°C 33.6°F0.9°C 46% Calm Calm 1.2 mph1.9 kmh 30.09 in1019.0 mb - 0.00 in0.0 mm 0.00 in0.0 mm
04:40 AM 53.9°F12.2°C 33.6°F0.9°C 46% Calm Calm -- 30.09 in1019.0 mb - 0.00 in0.0 mm 0.00 in0.0 mm
04:45 AM 54.0°F12.2°C 33.1°F0.6°C 45% Calm Calm -- 30.09 in1019.0 mb - 0.00 in0.0 mm 0.00 in0.0 mm
04:50 AM 54.0°F12.2°C 33.7°F0.9°C 46% Calm Calm -- 30.09 in1019.0 mb - 0.00 in0.0 mm 0.00 in0.0 mm
04:55 AM 54.0°F12.2°C 33.1°F0.6°C 45% Calm Calm -- 30.09 in1019.0 mb - 0.00 in0.0 mm 0.00 in0.0 mm
05:00 AM 53.9°F12.2°C 33.1°F0.6°C 45% Calm Calm -- 30.09 in1019.0 mb - 0.00 in0.0 mm 0.00 in0.0 mm
05:10 AM 54.1°F12.3°C 32.7°F0.4°C 44% Calm Calm 1.2 mph1.9 kmh 30.09 in1019.0 mb - 0.00 in0.0 mm 0.00 in0.0 mm
05:15 AM 54.2°F12.3°C 32.8°F0.4°C 44% 1.2 mph SE1.9 kmh SE 1.2 mph1.9 kmh 30.09 in1019.0 mb - 0.00 in0.0 mm 0.00 in0.0 mm
05:20 AM 54.4°F12.4°C 32.3°F0.2°C 43% Calm Calm -- 30.09 in1019.0 mb - 0.00 in0.0 mm 0.00 in0.0 mm
05:25 AM 54.5°F12.5°C 32.4°F0.2°C 43% Calm Calm 1.2 mph1.9 kmh 30.09 in1019.0 mb - 0.00 in0.0 mm 0.00 in0.0 mm
05:30 AM 54.6°F12.6°C 32.5°F0.3°C 43% 1.2 mph SE1.9 kmh SE 2.3 mph3.7 kmh 30.09 in1019.0 mb - 0.00 in0.0 mm 0.00 in0.0 mm
05:35 AM 54.7°F12.6°C 32.1°F0.1°C 42% 1.2 mph SE1.9 kmh SE 2.3 mph3.7 kmh 30.09 in1019.0 mb - 0.00 in0.0 mm 0.00 in0.0 mm
05:40 AM 54.7°F12.6°C 32.6°F0.3°C 43% 1.2 mph SE1.9 kmh SE 2.3 mph3.7 kmh 30.09 in1019.0 mb - 0.00 in0.0 mm 0.00 in0.0 mm
05:45 AM 54.7°F12.6°C 33.2°F0.7°C 44% 1.2 mph SE1.9 kmh SE 1.2 mph1.9 kmh 30.09 in1019.0 mb - 0.00 in0.0 mm 0.00 in0.0 mm
05:50 AM 54.6°F12.6°C 33.7°F0.9°C 45% Calm Calm 1.2 mph1.9 kmh 30.09 in1019.0 mb - 0.00 in0.0 mm 0.00 in0.0 mm
05:55 AM 54.5°F12.5°C 33.5°F0.8°C 45% Calm Calm 2.3 mph3.7 kmh 30.09 in1019.0 mb - 0.00 in0.0 mm 0.00 in0.0 mm
06:10 AM 54.4°F12.4°C 32.3°F0.2°C 43% Calm Calm 1.2 mph1.9 kmh 30.09 in1019.0 mb - 0.00 in0.0 mm 0.00 in0.0 mm
06:15 AM 54.5°F12.5°C 31.9°F-0.1°C 42% 1.2 mph SE1.9 kmh SE -- 30.09 in1019.0 mb - 0.00 in0.0 mm 0.00 in0.0 mm
06:20 AM 54.6°F12.6°C 31.9°F-0.1°C 42% Calm Calm 1.2 mph1.9 kmh 30.09 in1019.0 mb - 0.00 in0.0 mm 0.00 in0.0 mm
06:30 AM 54.7°F12.6°C 32.6°F0.3°C 43% Calm Calm 1.2 mph1.9 kmh 30.09 in1019.0 mb - 0.00 in0.0 mm 0.00 in0.0 mm
06:35 AM 54.7°F12.6°C 32.6°F0.3°C 43% 1.2 mph SE1.9 kmh SE 1.2 mph1.9 kmh 30.09 in1019.0 mb - 0.00 in0.0 mm 0.00 in0.0 mm
06:40 AM 54.8°F12.7°C 32.7°F0.4°C 43% 1.2 mph SE1.9 kmh SE 1.2 mph1.9 kmh 30.09 in1019.0 mb - 0.00 in0.0 mm 0.00 in0.0 mm
06:45 AM 54.9°F12.7°C 32.8°F0.4°C 43% Calm Calm 1.2 mph1.9 kmh 30.09 in1019.0 mb - 0.00 in0.0 mm 0.00 in0.0 mm
06:50 AM 54.9°F12.7°C 32.8°F0.4°C 43% 1.2 mph SE1.9 kmh SE 1.2 mph1.9 kmh 30.09 in1019.0 mb - 0.00 in0.0 mm 0.00 in0.0 mm
06:55 AM 55.1°F12.8°C 33.0°F0.6°C 43% 1.2 mph SE1.9 kmh SE 1.2 mph1.9 kmh 30.09 in1019.0 mb - 0.00 in0.0 mm 0.00 in0.0 mm
07:00 AM 55.2°F12.9°C 32.5°F0.3°C 42% 1.2 mph SE1.9 kmh SE 1.2 mph1.9 kmh 30.10 in1019.3 mb - 0.00 in0.0 mm 0.00 in0.0 mm
07:15 AM 54.6°F12.6°C 33.7°F0.9°C 45% Calm Calm -- 30.11 in1019.6 mb - 0.00 in0.0 mm 0.00 in0.0 mm
07:20 AM 54.3°F12.4°C 35.0°F1.7°C 48% Calm Calm 1.2 mph1.9 kmh 30.11 in1019.6 mb - 0.00 in0.0 mm 0.00 in0.0 mm
07:25 AM 53.9°F12.2°C 35.7°F2.1°C 50% Calm Calm -- 30.12 in1020.0 mb - 0.00 in0.0 mm 0.00 in0.0 mm
07:30 AM 53.5°F11.9°C 35.8°F2.1°C 51% Calm Calm -- 30.12 in1020.0 mb - 0.00 in0.0 mm 0.00 in0.0 mm
07:35 AM 53.1°F11.7°C 35.5°F1.9°C 51% Calm Calm 1.2 mph1.9 kmh 30.11 in1019.6 mb - 0.00 in0.0 mm 0.00 in0.0 mm
07:40 AM 52.9°F11.6°C 35.2°F1.8°C 51% Calm Calm -- 30.11 in1019.6 mb - 0.00 in0.0 mm 0.00 in0.0 mm
07:45 AM 52.8°F11.6°C 35.6°F2.0°C 52% Calm Calm -- 30.12 in1020.0 mb - 0.00 in0.0 mm 0.00 in0.0 mm
07:50 AM 52.6°F11.4°C 36.5°F2.5°C 54% Calm Calm -- 30.12 in1020.0 mb - 0.00 in0.0 mm 0.00 in0.0 mm
07:55 AM 52.6°F11.4°C 36.8°F2.7°C 55% Calm Calm 1.2 mph1.9 kmh 30.12 in1020.0 mb - 0.00 in0.0 mm 0.00 in0.0 mm
08:00 AM 52.5°F11.4°C 37.2°F2.9°C 56% Calm Calm 1.2 mph1.9 kmh 30.12 in1020.0 mb - 0.00 in0.0 mm 0.00 in0.0 mm
08:10 AM 52.4°F11.3°C 36.2°F2.3°C 54% 1.2 mph SE1.9 kmh SE 2.3 mph3.7 kmh 30.12 in1020.0 mb - 0.00 in0.0 mm 0.00 in0.0 mm
08:15 AM 52.6°F11.4°C 35.9°F2.2°C 53% 1.2 mph SE1.9 kmh SE 2.3 mph3.7 kmh 30.12 in1020.0 mb - 0.00 in0.0 mm 0.00 in0.0 mm
08:20 AM 52.9°F11.6°C 35.8°F2.1°C 52% 1.2 mph ESE1.9 kmh ESE 3.5 mph5.6 kmh 30.12 in1020.0 mb - 0.00 in0.0 mm 0.00 in0.0 mm
08:25 AM 53.5°F11.9°C 36.3°F2.4°C 52% 2.3 mph SE3.7 kmh SE 3.5 mph5.6 kmh 30.12 in1020.0 mb - 0.00 in0.0 mm 0.00 in0.0 mm
08:30 AM 53.8°F12.1°C 38.0°F3.3°C 55% 2.3 mph SE3.7 kmh SE 3.5 mph5.6 kmh 30.12 in1020.0 mb - 0.00 in0.0 mm 0.00 in0.0 mm
08:35 AM 53.7°F12.1°C 38.9°F3.8°C 57% 1.2 mph SE1.9 kmh SE 3.5 mph5.6 kmh 30.12 in1020.0 mb - 0.00 in0.0 mm 0.00 in0.0 mm
08:40 AM 53.5°F11.9°C 39.1°F3.9°C 58% 1.2 mph E1.9 kmh E 3.5 mph5.6 kmh 30.12 in1020.0 mb - 0.00 in0.0 mm 0.00 in0.0 mm
08:45 AM 53.4°F11.9°C 39.4°F4.1°C 59% Calm Calm 2.3 mph3.7 kmh 30.12 in1020.0 mb - 0.00 in0.0 mm 0.00 in0.0 mm
08:50 AM 53.2°F11.8°C 40.5°F4.7°C 62% Calm Calm 2.3 mph3.7 kmh 30.13 in1020.3 mb - 0.00 in0.0 mm 0.00 in0.0 mm
08:55 AM 53.0°F11.7°C 41.5°F5.3°C 65% 1.2 mph E1.9 kmh E 2.3 mph3.7 kmh 30.13 in1020.3 mb - 0.00 in0.0 mm 0.00 in0.0 mm
09:00 AM 52.7°F11.5°C 41.7°F5.4°C 66% Calm Calm -- 30.13 in1020.3 mb - 0.01 in0.3 mm 0.01 in0.3 mm
09:10 AM 52.2°F11.2°C 43.8°F6.6°C 73% Calm Calm -- 30.14 in1020.7 mb - 0.01 in0.3 mm 0.01 in0.3 mm
09:15 AM 51.7°F10.9°C 43.0°F6.1°C 72% Calm Calm 1.2 mph1.9 kmh 30.15 in1021.0 mb - 0.01 in0.3 mm 0.01 in0.3 mm
09:20 AM 51.2°F10.7°C 42.8°F6.0°C 73% Calm Calm 1.2 mph1.9 kmh 30.15 in1021.0 mb - 0.01 in0.3 mm 0.01 in0.3 mm
09:25 AM 51.1°F10.6°C 42.7°F5.9°C 73% Calm Calm -- 30.15 in1021.0 mb - 0.01 in0.3 mm 0.01 in0.3 mm
09:30 AM 51.0°F10.6°C 43.4°F6.3°C 75% Calm Calm 1.2 mph1.9 kmh 30.14 in1020.7 mb - 0.01 in0.3 mm 0.01 in0.3 mm
09:35 AM 50.9°F10.5°C 43.6°F6.4°C 76% Calm Calm -- 30.15 in1021.0 mb - 0.01 in0.3 mm 0.01 in0.3 mm
09:40 AM 50.7°F10.4°C 43.8°F6.6°C 77% Calm Calm -- 30.15 in1021.0 mb - 0.02 in0.5 mm 0.02 in0.5 mm
09:45 AM 50.4°F10.2°C 44.2°F6.8°C 79% Calm Calm 1.2 mph1.9 kmh 30.16 in1021.3 mb - 0.03 in0.8 mm 0.03 in0.8 mm
09:50 AM 50.0°F10.0°C 44.1°F6.7°C 80% Calm Calm 1.2 mph1.9 kmh 30.16 in1021.3 mb - 0.05 in1.3 mm 0.05 in1.3 mm
09:55 AM 49.7°F9.8°C 44.4°F6.9°C 82% Calm Calm -- 30.16 in1021.3 mb - 0.06 in1.5 mm 0.06 in1.5 mm
10:00 AM 49.4°F9.7°C 43.8°F6.6°C 81% Calm Calm 2.3 mph3.7 kmh 30.17 in1021.7 mb - 0.05 in1.3 mm 0.06 in1.5 mm
10:10 AM 49.5°F9.7°C 44.9°F7.2°C 84% 1.2 mph N1.9 kmh N 1.2 mph1.9 kmh 30.17 in1021.7 mb - 0.05 in1.3 mm 0.06 in1.5 mm
10:15 AM 49.5°F9.7°C 44.9°F7.2°C 84% Calm Calm 2.3 mph3.7 kmh 30.17 in1021.7 mb - 0.05 in1.3 mm 0.06 in1.5 mm
10:20 AM 49.6°F9.8°C 45.3°F7.4°C 85% 1.2 mph NNE1.9 kmh NNE 2.3 mph3.7 kmh 30.17 in1021.7 mb - 0.06 in1.5 mm 0.07 in1.8 mm
10:25 AM 49.8°F9.9°C 45.8°F7.7°C 86% 1.2 mph N1.9 kmh N 2.3 mph3.7 kmh 30.16 in1021.3 mb - 0.06 in1.5 mm 0.07 in1.8 mm
10:30 AM 50.0°F10.0°C 46.2°F7.9°C 87% Calm Calm 1.2 mph1.9 kmh 30.16 in1021.3 mb - 0.06 in1.5 mm 0.07 in1.8 mm
10:35 AM 50.1°F10.1°C 46.7°F8.2°C 88% Calm Calm -- 30.17 in1021.7 mb - 0.06 in1.5 mm 0.07 in1.8 mm
10:40 AM 50.2°F10.1°C 46.8°F8.2°C 88% Calm Calm 1.2 mph1.9 kmh 30.17 in1021.7 mb - 0.05 in1.3 mm 0.07 in1.8 mm
10:45 AM 50.3°F10.2°C 46.8°F8.2°C 88% Calm Calm -- 30.16 in1021.3 mb - 0.04 in1.0 mm 0.07 in1.8 mm
10:50 AM 50.3°F10.2°C 46.9°F8.3°C 88% Calm Calm -- 30.16 in1021.3 mb - 0.02 in0.5 mm 0.07 in1.8 mm
10:55 AM 50.5°F10.3°C 47.4°F8.6°C 89% Calm Calm -- 30.16 in1021.3 mb - 0.01 in0.3 mm 0.07 in1.8 mm
11:00 AM 50.7°F10.4°C 47.5°F8.6°C 89% Calm Calm -- 30.16 in1021.3 mb - 0.02 in0.5 mm 0.08 in2.0 mm
11:10 AM 50.9°F10.5°C 47.8°F8.8°C 89% Calm Calm 1.2 mph1.9 kmh 30.17 in1021.7 mb - 0.02 in0.5 mm 0.08 in2.0 mm
11:15 AM 50.9°F10.5°C 47.5°F8.6°C 88% Calm Calm 1.2 mph1.9 kmh 30.17 in1021.7 mb - 0.02 in0.5 mm 0.08 in2.0 mm
11:20 AM 51.0°F10.6°C 47.9°F8.8°C 89% Calm Calm 1.2 mph1.9 kmh 30.16 in1021.3 mb - 0.01 in0.3 mm 0.08 in2.0 mm
11:25 AM 50.9°F10.5°C 47.5°F8.6°C 88% 1.2 mph N1.9 kmh N 2.3 mph3.7 kmh 30.16 in1021.3 mb - 0.01 in0.3 mm 0.08 in2.0 mm
11:30 AM 50.9°F10.5°C 47.4°F8.6°C 88% 2.3 mph N3.7 kmh N 3.5 mph5.6 kmh 30.16 in1021.3 mb - 0.01 in0.3 mm 0.08 in2.0 mm
11:35 AM 51.0°F10.6°C 47.6°F8.7°C 88% 3.5 mph N5.6 kmh N 5.8 mph9.3 kmh 30.15 in1021.0 mb - 0.01 in0.3 mm 0.08 in2.0 mm
11:40 AM 51.1°F10.6°C 47.7°F8.7°C 88% 3.5 mph NNE5.6 kmh NNE 3.5 mph5.6 kmh 30.14 in1020.7 mb - 0.01 in0.3 mm 0.08 in2.0 mm
11:45 AM 51.2°F10.7°C 47.7°F8.7°C 88% 2.3 mph N3.7 kmh N 3.5 mph5.6 kmh 30.14 in1020.7 mb - 0.01 in0.3 mm 0.08 in2.0 mm
11:50 AM 51.4°F10.8°C 47.9°F8.8°C 88% 2.3 mph N3.7 kmh N 3.5 mph5.6 kmh 30.14 in1020.7 mb - 0.01 in0.3 mm 0.08 in2.0 mm
11:55 AM 51.5°F10.8°C 47.7°F8.7°C 87% 2.3 mph N3.7 kmh N 3.5 mph5.6 kmh 30.14 in1020.7 mb - 0.01 in0.3 mm 0.08 in2.0 mm
12:00 PM 51.5°F10.8°C 47.8°F8.8°C 87% 2.3 mph N3.7 kmh N 3.5 mph5.6 kmh 30.14 in1020.7 mb - 0.00 in0.0 mm 0.08 in2.0 mm
12:10 PM 51.5°F10.8°C 47.8°F8.8°C 87% 3.5 mph N5.6 kmh N 4.6 mph7.4 kmh 30.13 in1020.3 mb - 0.00 in0.0 mm 0.08 in2.0 mm
12:15 PM 51.6°F10.9°C 47.9°F8.8°C 87% 2.3 mph NNE3.7 kmh NNE 3.5 mph5.6 kmh 30.13 in1020.3 mb - 0.00 in0.0 mm 0.08 in2.0 mm
12:20 PM 51.8°F11.0°C 48.1°F8.9°C 87% 1.2 mph N1.9 kmh N 3.5 mph5.6 kmh 30.13 in1020.3 mb - 0.00 in0.0 mm 0.08 in2.0 mm
12:25 PM 52.1°F11.2°C 48.0°F8.9°C 86% 2.3 mph NNE3.7 kmh NNE 3.5 mph5.6 kmh 30.13 in1020.3 mb - 0.00 in0.0 mm 0.08 in2.0 mm
12:30 PM 52.0°F11.1°C 48.0°F8.9°C 86% 2.3 mph 3.7 kmh 3.5 mph5.6 kmh 30.13 in1020.3 mb - 0.00 in0.0 mm 0.08 in2.0 mm
12:35 PM 51.8°F11.0°C 47.8°F8.8°C 86% 1.2 mph N1.9 kmh N 2.3 mph3.7 kmh 30.13 in1020.3 mb - 0.00 in0.0 mm 0.08 in2.0 mm
12:40 PM 51.8°F11.0°C 47.7°F8.7°C 86% 1.2 mph N1.9 kmh N 3.5 mph5.6 kmh 30.12 in1020.0 mb - 0.00 in0.0 mm 0.08 in2.0 mm
12:45 PM 51.7°F10.9°C 47.9°F8.8°C 87% 1.2 mph N1.9 kmh N 3.5 mph5.6 kmh 30.13 in1020.3 mb - 0.00 in0.0 mm 0.08 in2.0 mm
12:50 PM 51.4°F10.8°C 47.6°F8.7°C 87% 2.3 mph N3.7 kmh N 5.8 mph9.3 kmh 30.12 in1020.0 mb - 0.00 in0.0 mm 0.08 in2.0 mm
12:55 PM 51.2°F10.7°C 47.5°F8.6°C 87% 2.3 mph N3.7 kmh N 5.8 mph9.3 kmh 30.12 in1020.0 mb - 0.00 in0.0 mm 0.08 in2.0 mm
01:00 PM 51.2°F10.7°C 47.7°F8.7°C 88% 3.5 mph NNE5.6 kmh NNE 3.5 mph5.6 kmh 30.12 in1020.0 mb - 0.00 in0.0 mm 0.08 in2.0 mm
01:10 PM 51.4°F10.8°C 47.9°F8.8°C 88% 2.3 mph N3.7 kmh N 4.6 mph7.4 kmh 30.12 in1020.0 mb - 0.00 in0.0 mm 0.08 in2.0 mm
01:15 PM 51.5°F10.8°C 48.0°F8.9°C 88% 2.3 mph NNE3.7 kmh NNE 4.6 mph7.4 kmh 30.11 in1019.6 mb - 0.00 in0.0 mm 0.08 in2.0 mm
01:20 PM 51.7°F10.9°C 48.3°F9.1°C 88% 2.3 mph N3.7 kmh N 5.8 mph9.3 kmh 30.11 in1019.6 mb - 0.00 in0.0 mm 0.08 in2.0 mm
01:25 PM 52.0°F11.1°C 48.2°F9.0°C 87% 4.6 mph N7.4 kmh N 5.8 mph9.3 kmh 30.11 in1019.6 mb - 0.00 in0.0 mm 0.08 in2.0 mm
01:30 PM 52.3°F11.3°C 48.6°F9.2°C 87% 3.5 mph NNE5.6 kmh NNE 4.6 mph7.4 kmh 30.11 in1019.6 mb - 0.00 in0.0 mm 0.08 in2.0 mm
01:35 PM 52.5°F11.4°C 48.1°F8.9°C 85% 2.3 mph N3.7 kmh N 3.5 mph5.6 kmh 30.11 in1019.6 mb - 0.00 in0.0 mm 0.08 in2.0 mm
01:40 PM 52.5°F11.4°C 48.1°F8.9°C 85% 3.5 mph N5.6 kmh N 5.8 mph9.3 kmh 30.11 in1019.6 mb - 0.00 in0.0 mm 0.08 in2.0 mm
01:45 PM 52.5°F11.4°C 48.4°F9.1°C 86% 2.3 mph N3.7 kmh N 3.5 mph5.6 kmh 30.11 in1019.6 mb - 0.00 in0.0 mm 0.08 in2.0 mm
01:50 PM 52.4°F11.3°C 48.4°F9.1°C 86% 2.3 mph NNE3.7 kmh NNE 3.5 mph5.6 kmh 30.11 in1019.6 mb - 0.00 in0.0 mm 0.08 in2.0 mm
01:55 PM 52.4°F11.3°C 48.3°F9.1°C 86% 3.5 mph N5.6 kmh N 6.9 mph11.1 kmh 30.11 in1019.6 mb - 0.00 in0.0 mm 0.08 in2.0 mm
02:00 PM 52.4°F11.3°C 48.3°F9.1°C 86% 4.6 mph N7.4 kmh N 6.9 mph11.1 kmh 30.11 in1019.6 mb - 0.00 in0.0 mm 0.08 in2.0 mm
02:10 PM 52.8°F11.6°C 48.7°F9.3°C 86% 2.3 mph NNE3.7 kmh NNE 3.5 mph5.6 kmh 30.11 in1019.6 mb - 0.00 in0.0 mm 0.08 in2.0 mm
02:15 PM 53.0°F11.7°C 49.0°F9.4°C 86% 2.3 mph NNE3.7 kmh NNE 3.5 mph5.6 kmh 30.11 in1019.6 mb - 0.00 in0.0 mm 0.08 in2.0 mm
02:20 PM 53.4°F11.9°C 49.3°F9.6°C 86% 1.2 mph N1.9 kmh N 2.3 mph3.7 kmh 30.11 in1019.6 mb - 0.00 in0.0 mm 0.08 in2.0 mm
02:25 PM 53.7°F12.1°C 49.3°F9.6°C 85% 2.3 mph N3.7 kmh N 3.5 mph5.6 kmh 30.11 in1019.6 mb - 0.00 in0.0 mm 0.08 in2.0 mm
02:30 PM 54.0°F12.2°C 49.2°F9.6°C 84% 1.2 mph NNE1.9 kmh NNE 2.3 mph3.7 kmh 30.11 in1019.6 mb - 0.00 in0.0 mm 0.08 in2.0 mm
02:35 PM 54.3°F12.4°C 49.3°F9.6°C 83% 1.2 mph N1.9 kmh N 3.5 mph5.6 kmh 30.11 in1019.6 mb - 0.00 in0.0 mm 0.08 in2.0 mm
02:40 PM 54.4°F12.4°C 49.3°F9.6°C 83% 2.3 mph N3.7 kmh N 3.5 mph5.6 kmh 30.11 in1019.6 mb - 0.00 in0.0 mm 0.08 in2.0 mm
02:45 PM 54.2°F12.3°C 49.1°F9.5°C 83% 2.3 mph N3.7 kmh N 3.5 mph5.6 kmh 30.11 in1019.6 mb - 0.00 in0.0 mm 0.08 in2.0 mm
02:50 PM 54.2°F12.3°C 49.2°F9.6°C 83% 2.3 mph NE3.7 kmh NE 3.5 mph5.6 kmh 30.11 in1019.6 mb - 0.00 in0.0 mm 0.08 in2.0 mm
02:55 PM 54.4°F12.4°C 49.3°F9.6°C 83% 1.2 mph N1.9 kmh N 3.5 mph5.6 kmh 30.11 in1019.6 mb - 0.00 in0.0 mm 0.08 in2.0 mm
03:00 PM 54.5°F12.5°C 49.1°F9.5°C 82% 1.2 mph NNE1.9 kmh NNE 2.3 mph3.7 kmh 30.10 in1019.3 mb - 0.00 in0.0 mm 0.08 in2.0 mm
03:10 PM 54.8°F12.7°C 49.4°F9.7°C 82% 1.2 mph N1.9 kmh N 3.5 mph5.6 kmh 30.09 in1019.0 mb - 0.00 in0.0 mm 0.08 in2.0 mm
03:15 PM 54.9°F12.7°C 49.8°F9.9°C 83% 1.2 mph N1.9 kmh N 1.2 mph1.9 kmh 30.09 in1019.0 mb - 0.00 in0.0 mm 0.08 in2.0 mm
03:20 PM 55.0°F12.8°C 49.9°F9.9°C 83% Calm Calm -- 30.09 in1019.0 mb - 0.00 in0.0 mm 0.08 in2.0 mm
03:25 PM 55.1°F12.8°C 49.7°F9.8°C 82% Calm Calm 1.2 mph1.9 kmh 30.09 in1019.0 mb - 0.00 in0.0 mm 0.08 in2.0 mm
03:30 PM 55.2°F12.9°C 49.8°F9.9°C 82% Calm Calm 1.2 mph1.9 kmh 30.10 in1019.3 mb - 0.00 in0.0 mm 0.08 in2.0 mm
03:35 PM 55.2°F12.9°C 49.5°F9.7°C 81% Calm Calm 1.2 mph1.9 kmh 30.11 in1019.6 mb - 0.00 in0.0 mm 0.08 in2.0 mm
03:40 PM 55.2°F12.9°C 49.4°F9.7°C 81% Calm Calm 2.3 mph3.7 kmh 30.11 in1019.6 mb - 0.00 in0.0 mm 0.08 in2.0 mm
03:45 PM 55.2°F12.9°C 49.5°F9.7°C 81% 1.2 mph N1.9 kmh N 2.3 mph3.7 kmh 30.11 in1019.6 mb - 0.00 in0.0 mm 0.08 in2.0 mm
03:50 PM 55.2°F12.9°C 49.5°F9.7°C 81% 2.3 mph NNE3.7 kmh NNE 3.5 mph5.6 kmh 30.10 in1019.3 mb - 0.00 in0.0 mm 0.08 in2.0 mm
03:55 PM 55.3°F12.9°C 49.9°F9.9°C 82% 2.3 mph N3.7 kmh N 3.5 mph5.6 kmh 30.10 in1019.3 mb - 0.00 in0.0 mm 0.08 in2.0 mm
04:00 PM 54.9°F12.7°C 49.5°F9.7°C 82% 3.5 mph NNE5.6 kmh NNE 4.6 mph7.4 kmh 30.10 in1019.3 mb - 0.00 in0.0 mm 0.08 in2.0 mm
04:10 PM 54.5°F12.5°C 49.5°F9.7°C 83% 3.5 mph N5.6 kmh N 3.5 mph5.6 kmh 30.11 in1019.6 mb - 0.00 in0.0 mm 0.08 in2.0 mm
04:15 PM 54.3°F12.4°C 49.6°F9.8°C 84% 3.5 mph N5.6 kmh N 4.6 mph7.4 kmh 30.11 in1019.6 mb - 0.00 in0.0 mm 0.08 in2.0 mm
04:20 PM 54.1°F12.3°C 49.4°F9.7°C 84% 3.5 mph NNE5.6 kmh NNE 4.6 mph7.4 kmh 30.10 in1019.3 mb - 0.00 in0.0 mm 0.08 in2.0 mm
04:25 PM 54.1°F12.3°C 49.3°F9.6°C 84% 5.8 mph NNE9.3 kmh NNE 9.2 mph14.8 kmh 30.09 in1019.0 mb - 0.00 in0.0 mm 0.08 in2.0 mm
04:30 PM 54.0°F12.2°C 49.0°F9.4°C 83% 5.8 mph N9.3 kmh N 10.4 mph16.7 kmh 30.09 in1019.0 mb - 0.00 in0.0 mm 0.08 in2.0 mm
04:35 PM 54.1°F12.3°C 49.0°F9.4°C 83% 5.8 mph NNE9.3 kmh NNE 9.2 mph14.8 kmh 30.09 in1019.0 mb - 0.00 in0.0 mm 0.08 in2.0 mm
04:40 PM 54.2°F12.3°C 49.1°F9.5°C 83% 4.6 mph N7.4 kmh N 4.6 mph7.4 kmh 30.09 in1019.0 mb - 0.00 in0.0 mm 0.08 in2.0 mm
04:45 PM 54.3°F12.4°C 49.0°F9.4°C 82% 2.3 mph N3.7 kmh N 3.5 mph5.6 kmh 30.10 in1019.3 mb - 0.00 in0.0 mm 0.08 in2.0 mm
04:50 PM 54.3°F12.4°C 49.2°F9.6°C 83% 3.5 mph N5.6 kmh N 6.9 mph11.1 kmh 30.10 in1019.3 mb - 0.00 in0.0 mm 0.08 in2.0 mm
04:55 PM 54.2°F12.3°C 49.2°F9.6°C 83% 4.6 mph NNE7.4 kmh NNE 5.8 mph9.3 kmh 30.10 in1019.3 mb - 0.00 in0.0 mm 0.08 in2.0 mm
05:00 PM 54.1°F12.3°C 49.1°F9.5°C 83% 4.6 mph NNE7.4 kmh NNE 5.8 mph9.3 kmh 30.10 in1019.3 mb - 0.00 in0.0 mm 0.08 in2.0 mm
05:10 PM 54.1°F12.3°C 49.0°F9.4°C 83% 4.6 mph N7.4 kmh N 6.9 mph11.1 kmh 30.10 in1019.3 mb - 0.00 in0.0 mm 0.08 in2.0 mm
05:15 PM 54.1°F12.3°C 48.8°F9.3°C 82% 4.6 mph N7.4 kmh N 6.9 mph11.1 kmh 30.09 in1019.0 mb - 0.00 in0.0 mm 0.08 in2.0 mm
05:20 PM 54.4°F12.4°C 48.7°F9.3°C 81% 4.6 mph NNE7.4 kmh NNE 5.8 mph9.3 kmh 30.09 in1019.0 mb - 0.00 in0.0 mm 0.08 in2.0 mm
05:25 PM 54.6°F12.6°C 48.9°F9.4°C 81% 3.5 mph N5.6 kmh N 4.6 mph7.4 kmh 30.09 in1019.0 mb - 0.00 in0.0 mm 0.08 in2.0 mm
05:30 PM 54.6°F12.6°C 48.9°F9.4°C 81% 2.3 mph N3.7 kmh N 2.3 mph3.7 kmh 30.10 in1019.3 mb - 0.00 in0.0 mm 0.08 in2.0 mm
05:35 PM 54.5°F12.5°C 48.8°F9.3°C 81% 2.3 mph NNE3.7 kmh NNE 3.5 mph5.6 kmh 30.10 in1019.3 mb - 0.00 in0.0 mm 0.08 in2.0 mm
05:40 PM 54.4°F12.4°C 49.0°F9.4°C 82% 3.5 mph N5.6 kmh N 6.9 mph11.1 kmh 30.10 in1019.3 mb - 0.00 in0.0 mm 0.08 in2.0 mm
05:45 PM 54.1°F12.3°C 49.1°F9.5°C 83% 3.5 mph NNE5.6 kmh NNE 4.6 mph7.4 kmh 30.10 in1019.3 mb - 0.00 in0.0 mm 0.08 in2.0 mm
05:50 PM 54.1°F12.3°C 48.7°F9.3°C 82% 4.6 mph N7.4 kmh N 6.9 mph11.1 kmh 30.09 in1019.0 mb - 0.00 in0.0 mm 0.08 in2.0 mm
05:55 PM 54.1°F12.3°C 48.7°F9.3°C 82% 4.6 mph N7.4 kmh N 4.6 mph7.4 kmh 30.09 in1019.0 mb - 0.00 in0.0 mm 0.08 in2.0 mm
06:10 PM 54.3°F12.4°C 48.6°F9.2°C 81% 3.5 mph NNE5.6 kmh NNE 3.5 mph5.6 kmh 30.10 in1019.3 mb - 0.00 in0.0 mm 0.08 in2.0 mm
06:15 PM 54.3°F12.4°C 48.9°F9.4°C 82% 3.5 mph N5.6 kmh N 4.6 mph7.4 kmh 30.09 in1019.0 mb - 0.00 in0.0 mm 0.08 in2.0 mm
06:20 PM 54.3°F12.4°C 48.9°F9.4°C 82% 2.3 mph N3.7 kmh N 3.5 mph5.6 kmh 30.10 in1019.3 mb - 0.00 in0.0 mm 0.08 in2.0 mm
06:25 PM 54.5°F12.5°C 48.8°F9.3°C 81% 2.3 mph N3.7 kmh N 2.3 mph3.7 kmh 30.10 in1019.3 mb - 0.00 in0.0 mm 0.08 in2.0 mm
06:30 PM 54.4°F12.4°C 49.0°F9.4°C 82% 2.3 mph N3.7 kmh N 3.5 mph5.6 kmh 30.09 in1019.0 mb - 0.00 in0.0 mm 0.08 in2.0 mm
06:35 PM 54.3°F12.4°C 49.0°F9.4°C 82% 2.3 mph NNE3.7 kmh NNE 2.3 mph3.7 kmh 30.09 in1019.0 mb - 0.00 in0.0 mm 0.08 in2.0 mm
06:40 PM 54.4°F12.4°C 48.7°F9.3°C 81% 2.3 mph NNE3.7 kmh NNE 3.5 mph5.6 kmh 30.09 in1019.0 mb - 0.00 in0.0 mm 0.08 in2.0 mm
06:45 PM 54.6°F12.6°C 48.9°F9.4°C 81% 1.2 mph N1.9 kmh N 3.5 mph5.6 kmh 30.10 in1019.3 mb - 0.00 in0.0 mm 0.08 in2.0 mm
06:50 PM 54.8°F12.7°C 48.7°F9.3°C 80% 2.3 mph NNE3.7 kmh NNE 3.5 mph5.6 kmh 30.10 in1019.3 mb - 0.00 in0.0 mm 0.08 in2.0 mm
07:10 PM 54.3°F12.4°C 48.9°F9.4°C 82% 2.3 mph N3.7 kmh N 3.5 mph5.6 kmh 30.11 in1019.6 mb - 0.00 in0.0 mm 0.08 in2.0 mm
07:15 PM 54.4°F12.4°C 48.7°F9.3°C 81% 4.6 mph NNE7.4 kmh NNE 9.2 mph14.8 kmh 30.10 in1019.3 mb - 0.00 in0.0 mm 0.08 in2.0 mm
07:20 PM 54.6°F12.6°C 48.6°F9.2°C 80% 5.8 mph N9.3 kmh N 6.9 mph11.1 kmh 30.10 in1019.3 mb - 0.00 in0.0 mm 0.08 in2.0 mm
07:25 PM 54.6°F12.6°C 48.2°F9.0°C 79% 3.5 mph NNE5.6 kmh NNE 4.6 mph7.4 kmh 30.11 in1019.6 mb - 0.00 in0.0 mm 0.08 in2.0 mm
07:30 PM 54.6°F12.6°C 48.2°F9.0°C 79% 4.6 mph NNW7.4 kmh NNW 3.5 mph5.6 kmh 30.10 in1019.3 mb - 0.00 in0.0 mm 0.08 in2.0 mm
07:35 PM 54.7°F12.6°C 48.0°F8.9°C 78% 3.5 mph N5.6 kmh N 8.1 mph13.0 kmh 30.11 in1019.6 mb - 0.00 in0.0 mm 0.08 in2.0 mm
07:40 PM 54.8°F12.7°C 48.1°F8.9°C 78% 3.5 mph NNE5.6 kmh NNE 6.9 mph11.1 kmh 30.11 in1019.6 mb - 0.00 in0.0 mm 0.08 in2.0 mm
07:45 PM 54.9°F12.7°C 48.1°F8.9°C 78% 5.8 mph NNE9.3 kmh NNE 8.1 mph13.0 kmh 30.11 in1019.6 mb - 0.00 in0.0 mm 0.08 in2.0 mm
07:50 PM 55.1°F12.8°C 48.0°F8.9°C 77% 8.1 mph N13.0 kmh N 11.5 mph18.5 kmh 30.11 in1019.6 mb - 0.00 in0.0 mm 0.08 in2.0 mm
07:55 PM 55.2°F12.9°C 48.1°F8.9°C 77% 8.1 mph N13.0 kmh N 10.4 mph16.7 kmh 30.12 in1020.0 mb - 0.00 in0.0 mm 0.08 in2.0 mm
08:00 PM 55.2°F12.9°C 48.1°F8.9°C 77% 3.5 mph NNE5.6 kmh NNE 3.5 mph5.6 kmh 30.12 in1020.0 mb - 0.00 in0.0 mm 0.08 in2.0 mm
08:10 PM 55.3°F12.9°C 48.2°F9.0°C 77% 1.2 mph N1.9 kmh N 1.2 mph1.9 kmh 30.12 in1020.0 mb - 0.00 in0.0 mm 0.08 in2.0 mm
08:15 PM 55.3°F12.9°C 48.2°F9.0°C 77% 1.2 mph NE1.9 kmh NE 2.3 mph3.7 kmh 30.12 in1020.0 mb - 0.00 in0.0 mm 0.08 in2.0 mm
08:20 PM 55.5°F13.1°C 48.1°F8.9°C 76% 1.2 mph NNE1.9 kmh NNE 1.2 mph1.9 kmh 30.12 in1020.0 mb - 0.00 in0.0 mm 0.08 in2.0 mm
08:25 PM 55.4°F13.0°C 48.0°F8.9°C 76% 1.2 mph NNE1.9 kmh NNE 1.2 mph1.9 kmh 30.12 in1020.0 mb - 0.00 in0.0 mm 0.08 in2.0 mm
08:30 PM 55.4°F13.0°C 48.3°F9.1°C 77% Calm Calm 3.5 mph5.6 kmh 30.12 in1020.0 mb - 0.00 in0.0 mm 0.08 in2.0 mm
08:35 PM 55.3°F12.9°C 48.2°F9.0°C 77% 2.3 mph NNE3.7 kmh NNE 2.3 mph3.7 kmh 30.12 in1020.0 mb - 0.00 in0.0 mm 0.08 in2.0 mm
08:40 PM 55.2°F12.9°C 48.1°F8.9°C 77% 1.2 mph NNE1.9 kmh NNE 2.3 mph3.7 kmh 30.12 in1020.0 mb - 0.00 in0.0 mm 0.08 in2.0 mm
08:45 PM 55.3°F12.9°C 48.2°F9.0°C 77% 2.3 mph N3.7 kmh N 2.3 mph3.7 kmh 30.12 in1020.0 mb - 0.00 in0.0 mm 0.08 in2.0 mm
08:50 PM 55.3°F12.9°C 48.2°F9.0°C 77% 1.2 mph NNE1.9 kmh NNE 2.3 mph3.7 kmh 30.12 in1020.0 mb - 0.00 in0.0 mm 0.08 in2.0 mm
08:55 PM 55.3°F12.9°C 48.2°F9.0°C 77% 2.3 mph N3.7 kmh N 2.3 mph3.7 kmh 30.12 in1020.0 mb - 0.00 in0.0 mm 0.08 in2.0 mm
09:00 PM 55.5°F13.1°C 48.0°F8.9°C 76% 2.3 mph NNE3.7 kmh NNE 4.6 mph7.4 kmh 30.12 in1020.0 mb - 0.00 in0.0 mm 0.08 in2.0 mm
09:10 PM 55.5°F13.1°C 48.1°F8.9°C 76% 2.3 mph N3.7 kmh N 3.5 mph5.6 kmh 30.11 in1019.6 mb - 0.00 in0.0 mm 0.08 in2.0 mm
09:15 PM 55.6°F13.1°C 48.2°F9.0°C 76% 2.3 mph NNE3.7 kmh NNE 3.5 mph5.6 kmh 30.11 in1019.6 mb - 0.00 in0.0 mm 0.08 in2.0 mm
09:20 PM 55.5°F13.1°C 48.1°F8.9°C 76% 2.3 mph NNE3.7 kmh NNE 3.5 mph5.6 kmh 30.12 in1020.0 mb - 0.00 in0.0 mm 0.08 in2.0 mm
09:25 PM 55.5°F13.1°C 48.1°F8.9°C 76% 2.3 mph N3.7 kmh N 3.5 mph5.6 kmh 30.12 in1020.0 mb - 0.00 in0.0 mm 0.08 in2.0 mm
09:30 PM 55.7°F13.2°C 47.9°F8.8°C 75% 2.3 mph NNE3.7 kmh NNE 1.2 mph1.9 kmh 30.12 in1020.0 mb - 0.00 in0.0 mm 0.08 in2.0 mm
09:35 PM 55.6°F13.1°C 47.8°F8.8°C 75% 1.2 mph NNE1.9 kmh NNE 1.2 mph1.9 kmh 30.12 in1020.0 mb - 0.00 in0.0 mm 0.08 in2.0 mm
09:45 PM 55.4°F13.0°C 48.0°F8.9°C 76% 1.2 mph NNE1.9 kmh NNE 1.2 mph1.9 kmh 30.13 in1020.3 mb - 0.00 in0.0 mm 0.08 in2.0 mm
09:50 PM 55.5°F13.1°C 48.1°F8.9°C 76% Calm Calm 2.3 mph3.7 kmh 30.13 in1020.3 mb - 0.00 in0.0 mm 0.08 in2.0 mm
10:00 PM 55.7°F13.2°C 47.9°F8.8°C 75% 1.2 mph NNE1.9 kmh NNE 1.2 mph1.9 kmh 30.14 in1020.7 mb - 0.00 in0.0 mm 0.08 in2.0 mm
10:10 PM 55.3°F12.9°C 48.2°F9.0°C 77% Calm Calm 1.2 mph1.9 kmh 30.14 in1020.7 mb - 0.00 in0.0 mm 0.08 in2.0 mm
10:15 PM 55.1°F12.8°C 48.3°F9.1°C 78% 1.2 mph ENE1.9 kmh ENE 1.2 mph1.9 kmh 30.14 in1020.7 mb - 0.00 in0.0 mm 0.08 in2.0 mm
10:20 PM 54.7°F12.6°C 48.0°F8.9°C 78% Calm Calm -- 30.14 in1020.7 mb - 0.00 in0.0 mm 0.08 in2.0 mm
10:25 PM 54.5°F12.5°C 48.2°F9.0°C 79% Calm Calm -- 30.14 in1020.7 mb - 0.00 in0.0 mm 0.08 in2.0 mm
10:30 PM 54.2°F12.3°C 47.8°F8.8°C 79% Calm Calm -- 30.14 in1020.7 mb - 0.00 in0.0 mm 0.08 in2.0 mm
10:40 PM 53.7°F12.1°C 47.0°F8.3°C 78% Calm Calm -- 30.14 in1020.7 mb - 0.00 in0.0 mm 0.08 in2.0 mm
10:50 PM 53.5°F11.9°C 46.8°F8.2°C 78% Calm Calm -- 30.14 in1020.7 mb - 0.00 in0.0 mm 0.08 in2.0 mm
10:55 PM 53.4°F11.9°C 46.7°F8.2°C 78% Calm Calm -- 30.14 in1020.7 mb - 0.00 in0.0 mm 0.08 in2.0 mm
11:15 PM 53.1°F11.7°C 47.4°F8.6°C 81% Calm Calm -- 30.14 in1020.7 mb - 0.00 in0.0 mm 0.08 in2.0 mm
11:20 PM 53.2°F11.8°C 47.5°F8.6°C 81% Calm Calm 1.2 mph1.9 kmh 30.14 in1020.7 mb - 0.00 in0.0 mm 0.08 in2.0 mm
11:25 PM 53.5°F11.9°C 47.5°F8.6°C 80% 1.2 mph NNE1.9 kmh NNE 2.3 mph3.7 kmh 30.13 in1020.3 mb - 0.00 in0.0 mm 0.08 in2.0 mm
11:30 PM 53.6°F12.0°C 47.6°F8.7°C 80% 1.2 mph N1.9 kmh N 1.2 mph1.9 kmh 30.13 in1020.3 mb - 0.00 in0.0 mm 0.08 in2.0 mm
11:35 PM 54.2°F12.3°C 47.8°F8.8°C 79% Calm Calm 1.2 mph1.9 kmh 30.13 in1020.3 mb - 0.00 in0.0 mm 0.08 in2.0 mm
11:40 PM 54.4°F12.4°C 48.0°F8.9°C 79% Calm Calm -- 30.13 in1020.3 mb - 0.00 in0.0 mm 0.08 in2.0 mm
11:45 PM 54.4°F12.4°C 47.7°F8.7°C 78% Calm Calm 1.2 mph1.9 kmh 30.13 in1020.3 mb - 0.00 in0.0 mm 0.08 in2.0 mm
11:50 PM 54.3°F12.4°C 47.9°F8.8°C 79% Calm Calm -- 30.14 in1020.7 mb - 0.00 in0.0 mm 0.08 in2.0 mm